createdAt,value
2023-05-15T00:00:11.742Z,86.67
2023-05-15T00:01:11.732Z,86.88
2023-05-15T00:02:11.746Z,86.98
2023-05-15T00:03:11.855Z,86.67
2023-05-15T00:04:11.730Z,87.08
2023-05-15T00:05:11.774Z,86.88
2023-05-15T00:06:11.700Z,86.88
2023-05-15T00:07:11.700Z,86.88
2023-05-15T00:08:11.698Z,86.67
2023-05-15T00:09:11.686Z,86.26
2023-05-15T00:10:11.674Z,86.36
2023-05-15T00:11:11.660Z,86.26
2023-05-15T00:12:11.667Z,86.77
2023-05-15T00:13:11.657Z,86.46
2023-05-15T00:14:11.640Z,86.26
2023-05-15T00:15:11.643Z,86.46
2023-05-15T00:16:11.760Z,86.57
2023-05-15T00:17:11.616Z,86.98
2023-05-15T00:18:11.647Z,87.08
2023-05-15T00:19:11.668Z,86.77
2023-05-15T00:20:11.604Z,86.67
2023-05-15T00:21:11.598Z,86.46
2023-05-15T00:22:11.602Z,86.46
2023-05-15T00:23:11.578Z,86.57
2023-05-15T00:24:11.567Z,86.46
2023-05-15T00:25:11.559Z,86.46
2023-05-15T00:26:11.558Z,86.26
2023-05-15T00:27:11.550Z,86.36
2023-05-15T00:28:11.545Z,86.40
2023-05-15T00:29:11.541Z,87.63
2023-05-15T00:30:11.535Z,87.29
2023-05-15T00:31:11.549Z,87.12
2023-05-15T00:32:11.516Z,86.77
2023-05-15T00:33:11.512Z,86.57
2023-05-15T00:34:11.504Z,86.40
2023-05-15T00:35:11.497Z,87.38
2023-05-15T00:36:11.525Z,87.53
2023-05-15T00:37:11.481Z,87.32
2023-05-15T00:38:11.475Z,87.49
2023-05-15T00:39:11.474Z,86.71
2023-05-15T00:40:11.466Z,87.63
2023-05-15T00:41:11.463Z,88.04
2023-05-15T00:42:11.450Z,87.94
2023-05-15T00:43:11.441Z,87.12
2023-05-15T00:44:11.446Z,88.04
2023-05-15T00:45:11.428Z,88.14
2023-05-15T00:46:11.437Z,88.14
2023-05-15T00:47:11.506Z,88.04
2023-05-15T00:48:11.406Z,88.14
2023-05-15T00:49:11.399Z,87.43
2023-05-15T00:50:11.402Z,87.88
2023-05-15T00:51:11.380Z,87.63
2023-05-15T00:52:11.379Z,88.24
2023-05-15T00:53:11.368Z,87.84
2023-05-15T00:54:11.430Z,88.29
2023-05-15T00:55:11.363Z,88.39
2023-05-15T00:56:11.354Z,88.49
2023-05-15T00:57:11.345Z,88.39
2023-05-15T00:58:11.358Z,88.96
2023-05-15T00:59:11.328Z,88.90
2023-05-15T01:00:11.359Z,89.31
2023-05-15T01:01:11.377Z,89.11
2023-05-15T01:02:11.354Z,89.42
2023-05-15T01:03:11.468Z,89.51
2023-05-15T01:04:11.290Z,89.62
2023-05-15T01:05:11.285Z,89.72
2023-05-15T01:06:11.275Z,89.83
2023-05-15T01:07:11.274Z,89.51
2023-05-15T01:08:11.283Z,89.72
2023-05-15T01:09:11.270Z,90.34
2023-05-15T01:10:11.247Z,90.03
2023-05-15T01:11:11.242Z,90.03
2023-05-15T01:12:11.246Z,90.23
2023-05-15T01:13:11.226Z,90.89
2023-05-15T01:14:11.219Z,90.54
2023-05-15T01:15:11.233Z,90.44
2023-05-15T01:16:11.208Z,90.79
2023-05-15T01:17:11.273Z,90.58
2023-05-15T01:18:11.253Z,91.09
2023-05-15T01:19:11.328Z,90.99
2023-05-15T01:20:11.180Z,91.09
2023-05-15T01:21:11.163Z,90.58
2023-05-15T01:22:11.176Z,91.09
2023-05-15T01:24:53.856Z,91.09
2023-05-15T01:25:53.842Z,91.44
2023-05-15T01:27:57.820Z,91.44
2023-05-15T01:28:57.806Z,91.44
2023-05-15T01:31:01.782Z,91.86
2023-05-15T01:32:01.790Z,91.86
2023-05-15T01:34:05.735Z,92.16
2023-05-15T01:35:05.734Z,91.69
2023-05-15T01:37:09.701Z,92.41
2023-05-15T01:38:09.682Z,92.41
2023-05-15T01:40:02.611Z,93.02
2023-05-15T01:41:02.574Z,92.31
2023-05-15T01:43:06.554Z,93.44
2023-05-15T01:44:06.543Z,93.64
2023-05-15T01:46:10.531Z,93.85
2023-05-15T01:47:10.513Z,93.85
2023-05-15T01:49:15.086Z,93.02
2023-05-15T01:50:14.876Z,93.23
2023-05-15T01:52:18.711Z,93.23
2023-05-15T01:53:18.691Z,93.23
2023-05-15T01:55:22.807Z,93.23
2023-05-15T01:56:22.672Z,93.85
2023-05-15T01:58:26.630Z,93.44
2023-05-15T01:59:26.604Z,93.44
2023-05-15T02:01:30.644Z,93.02
2023-05-15T02:02:30.697Z,93.13
2023-05-15T02:04:34.570Z,93.17
2023-05-15T02:05:34.541Z,93.48
2023-05-15T02:07:38.518Z,93.17
2023-05-15T02:08:38.497Z,93.59
2023-05-15T02:10:42.472Z,93.48
2023-05-15T02:11:42.477Z,93.38
2023-05-15T02:13:46.444Z,92.97
2023-05-15T02:14:46.414Z,92.46
2023-05-15T02:16:50.410Z,92.66
2023-05-15T02:17:50.404Z,93.07
2023-05-15T02:19:43.277Z,92.76
2023-05-15T02:20:43.260Z,92.14
2023-05-15T02:22:47.234Z,92.66
2023-05-15T02:23:47.214Z,93.42
2023-05-15T02:25:51.187Z,93.73
2023-05-15T02:26:51.189Z,93.52
2023-05-15T02:28:55.205Z,93.32
2023-05-15T02:29:55.133Z,93.52
2023-05-15T02:31:59.161Z,93.38
2023-05-15T02:32:59.132Z,93.52
2023-05-15T02:35:03.058Z,93.59
2023-05-15T02:36:03.056Z,93.32
2023-05-15T02:38:07.023Z,93.52
2023-05-15T02:39:07.003Z,93.93
2023-05-15T02:41:10.989Z,94.45
2023-05-15T02:42:10.967Z,94.34
2023-05-15T02:44:14.939Z,94.85
2023-05-15T02:45:14.930Z,94.85
2023-05-15T02:47:18.908Z,95.06
2023-05-15T02:48:18.880Z,95.27
2023-05-15T02:50:11.792Z,95.27
2023-05-15T02:51:11.802Z,95.37
2023-05-15T02:53:15.746Z,95.23
2023-05-15T02:54:15.731Z,94.61
2023-05-15T02:56:19.706Z,94.34
2023-05-15T02:57:19.683Z,94.55
2023-05-15T02:59:23.651Z,94.34
2023-05-15T03:00:23.642Z,94.49
2023-05-15T03:02:27.641Z,95.01
2023-05-15T03:03:27.597Z,95.31
2023-05-15T03:05:31.577Z,95.62
2023-05-15T03:06:31.604Z,95.97
2023-05-15T03:08:35.536Z,96.34
2023-05-15T03:09:35.527Z,95.72
2023-05-15T03:11:39.494Z,95.98
2023-05-15T03:12:39.472Z,96.09
2023-05-15T03:14:43.458Z,96.09
2023-05-15T03:15:43.443Z,95.78
2023-05-15T03:17:47.426Z,95.83
2023-05-15T03:18:47.951Z,95.83
2023-05-15T03:20:51.370Z,96.03
2023-05-15T03:21:51.365Z,95.93
2023-05-15T03:23:55.325Z,96.14
2023-05-15T03:24:55.308Z,96.03
2023-05-15T03:26:59.282Z,96.75
2023-05-15T03:27:59.264Z,96.75
2023-05-15T03:29:52.200Z,96.14
2023-05-15T03:30:52.165Z,96.23
2023-05-15T03:32:56.183Z,97.06
2023-05-15T03:33:56.112Z,96.65
2023-05-15T03:36:00.113Z,96.70
2023-05-15T03:37:00.069Z,96.50
2023-05-15T03:39:04.039Z,95.89
2023-05-15T03:40:04.022Z,95.78
2023-05-15T03:42:08.012Z,95.78
2023-05-15T03:43:07.975Z,95.47
2023-05-15T03:45:11.943Z,95.57
2023-05-15T03:46:12.798Z,95.68
2023-05-15T03:48:15.906Z,95.23
2023-05-15T03:49:15.892Z,94.92
2023-05-15T03:51:19.863Z,95.27
2023-05-15T03:52:19.839Z,94.61
2023-05-15T03:54:23.812Z,94.40
2023-05-15T03:55:23.914Z,94.10
2023-05-15T03:57:27.782Z,93.74
2023-05-15T03:58:27.760Z,93.13
2023-05-15T04:00:20.664Z,93.13
2023-05-15T04:01:20.644Z,92.78
2023-05-15T04:03:24.924Z,92.53
2023-05-15T04:04:24.605Z,92.02
2023-05-15T04:06:28.581Z,90.84
2023-05-15T04:07:28.564Z,90.13
2023-05-15T04:09:32.535Z,89.89
2023-05-15T04:10:32.521Z,89.06
2023-05-15T04:12:36.502Z,88.41
2023-05-15T04:13:36.483Z,87.76
2023-05-15T04:15:40.470Z,86.18
2023-05-15T04:16:40.471Z,86.44
2023-05-15T04:18:44.449Z,84.63
2023-05-15T04:19:44.393Z,84.08
2023-05-15T04:21:48.372Z,81.25
2023-05-15T04:22:48.363Z,79.99
2023-05-15T04:24:52.338Z,78.76
2023-05-15T04:25:52.312Z,76.99
2023-05-15T04:27:56.306Z,74.21
2023-05-15T04:29:03.526Z,72.96
2023-05-15T04:31:00.269Z,70.12
2023-05-15T04:32:00.310Z,69.04
2023-05-15T04:34:04.217Z,67.69
2023-05-15T04:35:04.197Z,64.93
2023-05-15T04:37:08.169Z,65.64
2023-05-15T04:38:08.158Z,66.72
2023-05-15T04:40:01.072Z,64.64
2023-05-15T04:41:01.062Z,62.99
2023-05-15T04:43:05.048Z,61.41
2023-05-15T04:44:05.029Z,60.81
2023-05-15T04:46:09.037Z,60.00
2023-05-15T04:47:08.995Z,60.10
2023-05-15T04:49:12.987Z,62.29
2023-05-15T04:50:12.965Z,61.76
2023-05-15T04:52:16.945Z,59.86
2023-05-15T04:53:16.935Z,58.27
2023-05-15T04:55:20.941Z,55.91
2023-05-15T04:56:20.901Z,55.08
2023-05-15T04:58:24.900Z,53.45
2023-05-15T04:59:24.869Z,53.34
2023-05-15T05:01:28.908Z,53.62
2023-05-15T05:02:28.870Z,54.98
2023-05-15T05:04:32.814Z,59.27
2023-05-15T05:05:32.897Z,60.71
2023-05-15T05:07:36.798Z,61.73
2023-05-15T05:08:36.776Z,61.91
2023-05-15T05:10:40.771Z,61.51
2023-05-15T05:11:40.761Z,61.51
2023-05-15T05:13:44.750Z,62.59
2023-05-15T05:14:44.764Z,62.49
2023-05-15T05:16:48.728Z,58.45
2023-05-15T05:17:48.860Z,57.59
2023-05-15T05:19:41.643Z,56.65
2023-05-15T05:20:41.608Z,53.39
2023-05-15T05:22:45.590Z,51.59
2023-05-15T05:23:45.584Z,50.35
2023-05-15T05:25:49.579Z,48.90
2023-05-15T05:26:49.554Z,48.88
2023-05-15T05:28:53.539Z,46.14
2023-05-15T05:29:53.523Z,45.74
2023-05-15T05:31:57.582Z,46.72
2023-05-15T05:32:57.538Z,44.42
2023-05-15T05:35:01.492Z,45.57
2023-05-15T05:36:01.604Z,43.76
2023-05-15T05:38:05.465Z,43.35
2023-05-15T05:39:05.536Z,42.17
2023-05-15T05:41:09.440Z,43.32
2023-05-15T05:42:09.437Z,43.90
2023-05-15T05:44:13.433Z,41.47
2023-05-15T05:45:13.404Z,41.87
2023-05-15T05:47:17.451Z,41.36
2023-05-15T05:48:17.389Z,40.76
2023-05-15T05:50:10.295Z,41.28
2023-05-15T05:51:10.292Z,40.41
2023-05-15T05:53:14.274Z,40.88
2023-05-15T05:54:14.257Z,41.87
2023-05-15T05:56:18.263Z,41.66
2023-05-15T05:57:18.235Z,40.34
2023-05-15T05:59:22.226Z,40.05
2023-05-15T06:00:22.214Z,39.75
2023-05-15T06:02:26.453Z,40.80
2023-05-15T06:03:26.395Z,41.75
2023-05-15T06:05:30.416Z,44.24
2023-05-15T06:06:30.298Z,45.89
2023-05-15T06:08:34.294Z,47.67
2023-05-15T06:09:34.290Z,48.22
2023-05-15T06:11:38.271Z,50.89
2023-05-15T06:12:38.260Z,51.04
2023-05-15T06:14:42.256Z,53.97
2023-05-15T06:15:42.247Z,56.61
2023-05-15T06:17:46.270Z,55.73
2023-05-15T06:18:46.254Z,56.91
2023-05-15T06:20:50.211Z,55.30
2023-05-15T06:21:50.203Z,56.51
2023-05-15T06:23:54.173Z,53.80
2023-05-15T06:24:54.172Z,53.80
2023-05-15T06:26:58.216Z,52.47
2023-05-15T06:27:58.211Z,53.00
2023-05-15T06:29:51.120Z,55.26
2023-05-15T06:30:51.159Z,54.20
2023-05-15T06:32:55.100Z,57.65
2023-05-15T06:33:55.084Z,57.55
2023-05-15T06:35:59.083Z,58.33
2023-05-15T06:36:59.066Z,57.62
2023-05-15T06:39:03.054Z,56.04
2023-05-15T06:40:03.047Z,56.64
2023-05-15T06:42:07.025Z,58.38
2023-05-15T06:43:07.019Z,58.75
2023-05-15T06:45:10.996Z,58.42
2023-05-15T06:46:11.081Z,59.63
2023-05-15T06:48:15.021Z,57.37
2023-05-15T06:49:14.959Z,58.60
2023-05-15T06:51:18.953Z,59.00
2023-05-15T06:52:18.943Z,57.57
2023-05-15T06:54:22.940Z,57.57
2023-05-15T06:55:22.985Z,57.46
2023-05-15T06:57:26.907Z,55.66
2023-05-15T06:58:26.902Z,55.53
2023-05-15T07:00:19.801Z,55.53
2023-05-15T07:01:19.850Z,55.53
2023-05-15T07:03:23.814Z,54.60
2023-05-15T07:04:23.827Z,54.90
2023-05-15T07:06:27.760Z,55.00
2023-05-15T07:07:27.762Z,54.20
2023-05-15T07:09:31.727Z,54.65
2023-05-15T07:10:31.735Z,54.72
2023-05-15T07:12:35.713Z,52.17
2023-05-15T07:13:35.695Z,52.82
2023-05-15T07:15:39.684Z,54.90
2023-05-15T07:16:39.673Z,55.40
2023-05-15T07:18:43.710Z,54.38
2023-05-15T07:19:43.648Z,55.05
2023-05-15T07:21:47.639Z,52.64
2023-05-15T07:22:55.537Z,53.85
2023-05-15T07:24:51.612Z,52.01
2023-05-15T07:25:51.600Z,51.25
2023-05-15T07:27:55.591Z,50.02
2023-05-15T07:28:55.580Z,47.88
2023-05-15T07:31:01.049Z,47.10
2023-05-15T07:31:59.703Z,47.22
2023-05-15T07:34:03.581Z,49.49
2023-05-15T07:35:03.571Z,48.64
2023-05-15T07:37:07.554Z,49.54
2023-05-15T07:38:07.864Z,50.16
2023-05-15T07:40:00.493Z,50.26
2023-05-15T07:41:00.458Z,50.57
2023-05-15T07:43:04.431Z,51.07
2023-05-15T07:44:04.443Z,50.84
2023-05-15T07:46:08.501Z,50.07
2023-05-15T07:47:08.425Z,50.46
2023-05-15T07:49:12.481Z,51.09
2023-05-15T07:50:12.436Z,51.46
2023-05-15T07:52:16.395Z,53.52
2023-05-15T07:53:16.392Z,55.26
2023-05-15T07:55:20.374Z,54.65
2023-05-15T07:56:20.362Z,54.13
2023-05-15T07:58:24.355Z,55.43
2023-05-15T07:59:24.398Z,54.80
2023-05-15T08:01:29.546Z,54.00
2023-05-15T08:02:28.382Z,53.80
2023-05-15T08:04:32.335Z,55.96
2023-05-15T08:05:32.304Z,55.66
2023-05-15T08:07:36.406Z,56.36
2023-05-15T08:08:36.349Z,55.35
2023-05-15T08:10:40.264Z,54.63
2023-05-15T08:11:40.261Z,55.40
2023-05-15T08:13:44.399Z,55.51
2023-05-15T08:14:44.389Z,55.00
2023-05-15T08:16:48.358Z,55.30
2023-05-15T08:17:48.381Z,55.40
2023-05-15T08:19:41.254Z,55.10
2023-05-15T08:20:41.250Z,55.91
2023-05-15T08:22:45.234Z,56.84
2023-05-15T08:23:45.314Z,56.66
2023-05-15T08:25:49.209Z,57.39
2023-05-15T08:26:49.200Z,58.09
2023-05-15T08:28:53.180Z,58.90
2023-05-15T08:29:53.189Z,58.87
2023-05-15T08:31:57.166Z,58.33
2023-05-15T08:32:57.198Z,58.55
2023-05-15T08:35:01.145Z,59.76
2023-05-15T08:36:01.165Z,59.19
2023-05-15T08:38:05.114Z,61.33
2023-05-15T08:39:05.103Z,61.80
2023-05-15T08:41:09.090Z,62.21
2023-05-15T08:42:09.076Z,61.87
2023-05-15T08:44:13.071Z,61.77
2023-05-15T08:45:13.050Z,61.27
2023-05-15T08:47:17.041Z,60.27
2023-05-15T08:48:17.192Z,59.66
2023-05-15T08:50:09.948Z,61.07
2023-05-15T08:51:09.933Z,60.33
2023-05-15T08:53:13.934Z,59.23
2023-05-15T08:54:13.918Z,60.33
2023-05-15T08:56:17.910Z,58.29
2023-05-15T08:57:17.893Z,59.10
2023-05-15T08:59:21.879Z,58.97
2023-05-15T09:00:21.878Z,59.78
2023-05-15T09:02:25.878Z,58.44
2023-05-15T09:03:25.990Z,57.84
2023-05-15T09:05:29.869Z,56.63
2023-05-15T09:06:29.838Z,57.64
2023-05-15T09:08:33.832Z,59.38
2023-05-15T09:09:33.812Z,59.41
2023-05-15T09:11:37.796Z,59.08
2023-05-15T09:12:37.787Z,59.38
2023-05-15T09:14:41.778Z,57.87
2023-05-15T09:15:41.770Z,58.77
2023-05-15T09:17:45.781Z,57.17
2023-05-15T09:18:45.757Z,57.57
2023-05-15T09:20:49.713Z,57.77
2023-05-15T09:21:49.712Z,58.57
2023-05-15T09:23:53.698Z,58.47
2023-05-15T09:24:53.725Z,57.46
2023-05-15T09:26:57.673Z,57.74
2023-05-15T09:27:57.663Z,56.63
2023-05-15T09:29:50.573Z,56.41
2023-05-15T09:30:50.567Z,56.51
2023-05-15T09:32:54.569Z,57.76
2023-05-15T09:33:54.537Z,55.35
2023-05-15T09:35:58.528Z,52.64
2023-05-15T09:36:58.523Z,53.45
2023-05-15T09:37:58.521Z,53.85
2023-05-15T09:38:58.590Z,52.34
2023-05-15T09:39:58.524Z,53.64
2023-05-15T09:40:58.510Z,52.44
2023-05-15T09:41:58.512Z,51.04
2023-05-15T09:42:58.514Z,52.34
2023-05-15T09:43:58.501Z,50.04
2023-05-15T09:44:58.503Z,49.66
2023-05-15T09:45:58.639Z,49.38
2023-05-15T09:46:58.586Z,50.89
2023-05-15T09:47:58.613Z,50.89
2023-05-15T09:48:58.578Z,50.79
2023-05-15T09:49:58.491Z,50.71
2023-05-15T09:50:58.489Z,51.72
2023-05-15T09:51:58.486Z,51.42
2023-05-15T09:52:58.486Z,50.41
2023-05-15T09:53:58.481Z,51.54
2023-05-15T09:54:58.484Z,51.34
2023-05-15T09:55:58.514Z,51.34
2023-05-15T09:56:58.480Z,51.64
2023-05-15T09:57:58.476Z,51.34
2023-05-15T09:58:58.539Z,52.01
2023-05-15T09:59:58.478Z,51.64
2023-05-15T10:00:58.466Z,51.01
2023-05-15T10:01:58.555Z,50.93
2023-05-15T10:02:58.510Z,51.31
2023-05-15T10:03:58.459Z,52.62
2023-05-15T10:04:58.546Z,51.11
2023-05-15T10:05:58.475Z,50.41
2023-05-15T10:06:58.487Z,50.51
2023-05-15T10:07:58.469Z,51.04
2023-05-15T10:08:58.454Z,51.14
2023-05-15T10:09:58.446Z,50.93
2023-05-15T10:10:58.452Z,51.54
2023-05-15T10:11:58.441Z,51.44
2023-05-15T10:12:58.438Z,52.34
2023-05-15T10:13:58.441Z,52.94
2023-05-15T10:14:58.439Z,53.34
2023-05-15T10:15:58.456Z,51.26
2023-05-15T10:16:58.433Z,53.37
2023-05-15T10:17:58.466Z,53.07
2023-05-15T10:18:58.469Z,53.67
2023-05-15T10:19:59.091Z,53.57
2023-05-15T10:20:58.430Z,53.55
2023-05-15T10:21:58.419Z,53.27
2023-05-15T10:22:58.417Z,53.14
2023-05-15T10:23:58.414Z,52.04
2023-05-15T10:24:58.434Z,53.05
2023-05-15T10:25:58.409Z,54.98
2023-05-15T10:26:58.405Z,55.21
2023-05-15T10:27:58.404Z,55.54
2023-05-15T10:28:58.403Z,55.83
2023-05-15T10:29:58.404Z,56.87
2023-05-15T10:30:58.441Z,56.47
2023-05-15T10:31:58.439Z,57.57
2023-05-15T10:32:58.420Z,58.18
2023-05-15T10:33:58.388Z,58.35
2023-05-15T10:34:58.396Z,58.45
2023-05-15T10:35:58.388Z,58.55
2023-05-15T10:36:58.395Z,57.55
2023-05-15T10:37:58.384Z,59.06
2023-05-15T10:38:58.375Z,56.97
2023-05-15T10:39:58.377Z,59.01
2023-05-15T10:41:13.172Z,59.55
2023-05-15T10:41:58.371Z,60.25
2023-05-15T10:42:58.365Z,58.84
2023-05-15T10:43:58.361Z,60.98
2023-05-15T10:44:58.360Z,59.95
2023-05-15T10:45:58.364Z,62.37
2023-05-15T10:46:58.416Z,61.05
2023-05-15T10:47:58.383Z,61.16
2023-05-15T10:48:58.365Z,61.36
2023-05-15T10:49:58.352Z,62.16
2023-05-15T10:50:58.343Z,59.37
2023-05-15T10:51:58.337Z,61.25
2023-05-15T10:52:58.341Z,61.05
2023-05-15T10:53:58.337Z,59.44
2023-05-15T10:54:58.348Z,60.12
2023-05-15T10:55:58.385Z,59.92
2023-05-15T10:56:58.328Z,59.42
2023-05-15T10:57:58.325Z,58.34
2023-05-15T10:58:58.323Z,60.02
2023-05-15T10:59:58.326Z,59.39
2023-05-15T11:00:58.329Z,59.89
2023-05-15T11:01:58.311Z,60.09
2023-05-15T11:02:58.391Z,60.16
2023-05-15T11:03:58.317Z,59.13
2023-05-15T11:04:58.308Z,58.50
2023-05-15T11:05:58.304Z,56.99
2023-05-15T11:06:58.305Z,57.22
2023-05-15T11:07:58.296Z,59.03
2023-05-15T11:08:58.296Z,57.29
2023-05-15T11:09:58.293Z,56.99
2023-05-15T11:10:58.291Z,57.52
2023-05-15T11:11:58.316Z,57.52
2023-05-15T11:12:58.287Z,59.20
2023-05-15T11:13:58.282Z,57.70
2023-05-15T11:14:58.282Z,57.26
2023-05-15T11:15:58.281Z,55.35
2023-05-15T11:16:58.364Z,55.43
2023-05-15T11:17:58.306Z,54.70
2023-05-15T11:18:58.312Z,54.30
2023-05-15T11:19:58.276Z,56.01
2023-05-15T11:20:58.268Z,55.60
2023-05-15T11:21:58.275Z,55.00
2023-05-15T11:22:58.268Z,55.40
2023-05-15T11:23:58.261Z,55.10
2023-05-15T11:24:58.265Z,54.68
2023-05-15T11:25:58.281Z,55.38
2023-05-15T11:26:59.247Z,55.55
2023-05-15T11:27:58.265Z,52.14
2023-05-15T11:28:58.254Z,52.22
2023-05-15T11:29:58.250Z,52.22
2023-05-15T11:30:58.299Z,53.17
2023-05-15T11:31:58.248Z,52.97
2023-05-15T11:32:58.378Z,52.27
2023-05-15T11:33:58.245Z,50.96
2023-05-15T11:34:58.247Z,50.14
2023-05-15T11:35:58.260Z,51.19
2023-05-15T11:36:58.246Z,50.89
2023-05-15T11:37:58.242Z,51.97
2023-05-15T11:38:58.238Z,49.99
2023-05-15T11:39:58.241Z,50.79
2023-05-15T11:40:58.242Z,50.29
2023-05-15T11:41:59.288Z,50.62
2023-05-15T11:42:58.234Z,50.71
2023-05-15T11:43:58.234Z,51.24
2023-05-15T11:44:58.234Z,51.24
2023-05-15T11:45:58.342Z,51.24
2023-05-15T11:46:58.250Z,51.64
2023-05-15T11:47:58.304Z,52.12
2023-05-15T11:49:00.067Z,50.81
2023-05-15T11:49:58.224Z,50.42
2023-05-15T11:50:58.223Z,52.84
2023-05-15T11:51:58.218Z,52.44
2023-05-15T11:52:58.218Z,51.51
2023-05-15T11:53:58.218Z,52.52
2023-05-15T11:54:58.221Z,51.09
2023-05-15T11:55:58.218Z,51.09
2023-05-15T11:56:58.218Z,51.09
2023-05-15T11:57:58.222Z,50.42
2023-05-15T11:58:58.222Z,52.12
2023-05-15T11:59:58.216Z,52.52
2023-05-15T12:00:58.209Z,50.51
2023-05-15T12:01:58.209Z,50.71
2023-05-15T12:02:58.300Z,49.41
2023-05-15T12:03:58.645Z,47.99
2023-05-15T12:04:58.238Z,48.49
2023-05-15T12:06:00.186Z,49.66
2023-05-15T12:06:58.304Z,47.76
2023-05-15T12:07:58.196Z,46.86
2023-05-15T12:08:58.202Z,47.49
2023-05-15T12:09:58.197Z,46.86
2023-05-15T12:10:58.199Z,48.16
2023-05-15T12:11:58.193Z,47.96
2023-05-15T12:12:58.190Z,47.56
2023-05-15T12:13:58.191Z,48.26
2023-05-15T12:14:58.189Z,46.26
2023-05-15T12:15:58.258Z,46.16
2023-05-15T12:16:58.345Z,46.36
2023-05-15T12:17:58.218Z,45.08
2023-05-15T12:18:58.232Z,45.58
2023-05-15T12:19:58.184Z,46.28
2023-05-15T12:20:58.187Z,45.98
2023-05-15T12:21:58.192Z,45.86
2023-05-15T12:22:58.177Z,45.86
2023-05-15T12:24:58.174Z,44.93
2023-05-15T12:25:58.171Z,45.36
2023-05-15T12:26:58.166Z,44.34
2023-05-15T12:27:58.168Z,44.43
2023-05-15T12:28:58.167Z,43.93
2023-05-15T12:29:58.167Z,44.74
2023-05-15T12:30:58.173Z,43.43
2023-05-15T12:31:58.199Z,45.21
2023-05-15T12:32:58.217Z,43.91
2023-05-15T12:33:58.158Z,42.19
2023-05-15T12:34:58.155Z,43.01
2023-05-15T12:36:01.072Z,43.01
2023-05-15T12:36:58.151Z,41.82
2023-05-15T12:37:58.150Z,42.41
2023-05-15T12:38:58.152Z,42.52
2023-05-15T12:39:58.148Z,41.74
2023-05-15T12:40:58.146Z,42.83
2023-05-15T12:41:58.150Z,42.66
2023-05-15T12:42:58.146Z,42.25
2023-05-15T12:43:58.142Z,42.38
2023-05-15T12:44:58.139Z,43.05
2023-05-15T12:45:58.206Z,42.96
2023-05-15T12:46:58.140Z,42.93
2023-05-15T12:47:58.235Z,42.93
2023-05-15T12:48:58.141Z,42.54
2023-05-15T12:49:58.129Z,42.63
2023-05-15T12:50:58.129Z,44.42
2023-05-15T12:51:58.146Z,41.71
2023-05-15T12:52:58.140Z,41.21
2023-05-15T12:53:58.146Z,41.02
2023-05-15T12:54:58.131Z,41.69
2023-05-15T12:55:58.120Z,41.67
2023-05-15T12:56:59.248Z,40.17
2023-05-15T12:57:58.122Z,39.69
2023-05-15T12:58:58.118Z,40.30
2023-05-15T12:59:58.112Z,41.17
2023-05-15T13:00:58.137Z,41.25
2023-05-15T13:01:58.153Z,38.85
2023-05-15T13:02:58.188Z,38.14
2023-05-15T13:03:58.141Z,38.34
2023-05-15T13:04:58.097Z,38.22
2023-05-15T13:05:58.101Z,39.82
2023-05-15T13:06:58.101Z,39.00
2023-05-15T13:07:58.094Z,39.70
2023-05-15T13:08:58.094Z,38.68
2023-05-15T13:09:58.090Z,37.59
2023-05-15T13:10:58.120Z,38.37
2023-05-15T13:11:58.092Z,37.87
2023-05-15T13:12:58.098Z,38.46
2023-05-15T13:13:58.126Z,37.87
2023-05-15T13:14:58.086Z,38.86
2023-05-15T13:15:58.117Z,38.31
2023-05-15T13:16:58.085Z,39.50
2023-05-15T13:17:58.113Z,38.90
2023-05-15T13:18:58.100Z,40.08
2023-05-15T13:19:58.079Z,38.17
2023-05-15T13:20:58.091Z,37.27
2023-05-15T13:21:58.077Z,37.07
2023-05-15T13:22:58.074Z,37.55
2023-05-15T13:23:58.178Z,38.45
2023-05-15T13:24:58.117Z,37.85
2023-05-15T13:25:58.076Z,38.35
2023-05-15T13:26:58.076Z,37.45
2023-05-15T13:27:58.086Z,38.27
2023-05-15T13:28:58.076Z,36.59
2023-05-15T13:29:58.075Z,37.68
2023-05-15T13:30:58.124Z,37.62
2023-05-15T13:31:58.107Z,38.12
2023-05-15T13:32:58.116Z,42.05
2023-05-15T13:33:58.073Z,46.96
2023-05-15T13:34:58.071Z,51.84
2023-05-15T13:35:58.072Z,54.73
2023-05-15T13:36:58.083Z,57.45
2023-05-15T13:37:58.072Z,57.70
2023-05-15T13:38:58.070Z,59.67
2023-05-15T13:39:58.072Z,61.35
2023-05-15T13:40:58.083Z,61.47
2023-05-15T13:41:58.071Z,62.21
2023-05-15T13:42:58.066Z,62.95
2023-05-15T13:43:58.067Z,63.93
2023-05-15T13:44:58.062Z,64.23
2023-05-15T13:45:58.075Z,64.46
2023-05-15T13:46:58.073Z,65.84
2023-05-15T13:47:58.069Z,65.53
2023-05-15T13:48:58.053Z,64.79
2023-05-15T13:49:58.055Z,65.40
2023-05-15T13:50:58.064Z,65.30
2023-05-15T13:51:58.045Z,65.73
2023-05-15T13:52:58.045Z,66.14
2023-05-15T13:53:58.037Z,66.64
2023-05-15T13:54:58.033Z,66.75
2023-05-15T13:55:58.049Z,66.21
2023-05-15T13:56:58.029Z,66.95
2023-05-15T13:57:58.033Z,67.46
2023-05-15T13:58:58.020Z,67.46
2023-05-15T13:59:58.019Z,68.19
2023-05-15T14:00:58.046Z,68.47
2023-05-15T14:01:58.008Z,68.37
2023-05-15T14:02:58.004Z,68.47
2023-05-15T14:03:58.088Z,68.57
2023-05-15T14:04:57.997Z,68.47
2023-05-15T14:05:57.992Z,68.37
2023-05-15T14:06:57.989Z,68.97
2023-05-15T14:07:57.987Z,68.67
2023-05-15T14:08:58.000Z,69.81
2023-05-15T14:09:57.973Z,69.71
2023-05-15T14:10:57.971Z,70.42
2023-05-15T14:11:57.990Z,71.77
2023-05-15T14:12:59.396Z,71.13
2023-05-15T14:13:57.959Z,71.03
2023-05-15T14:14:57.953Z,72.04
2023-05-15T14:15:57.947Z,71.40
2023-05-15T14:16:58.047Z,71.40
2023-05-15T14:17:57.977Z,71.17
2023-05-15T14:18:57.972Z,70.86
2023-05-15T14:19:57.938Z,70.09
2023-05-15T14:20:57.924Z,71.40
2023-05-15T14:21:57.923Z,71.20
2023-05-15T14:22:57.920Z,71.26
2023-05-15T14:23:57.917Z,69.51
2023-05-15T14:24:57.906Z,69.95
2023-05-15T14:25:57.900Z,69.45
2023-05-15T14:26:57.901Z,68.84
2023-05-15T14:27:57.905Z,69.65
2023-05-15T14:28:57.900Z,69.55
2023-05-15T14:29:57.880Z,68.00
2023-05-15T14:30:57.888Z,68.00
2023-05-15T14:31:57.915Z,66.75
2023-05-15T14:32:57.964Z,66.35
2023-05-15T14:33:57.867Z,67.66
2023-05-15T14:34:57.869Z,67.86
2023-05-15T14:35:57.873Z,66.42
2023-05-15T14:36:57.864Z,67.83
2023-05-15T14:37:57.858Z,67.60
2023-05-15T14:39:00.219Z,65.99
2023-05-15T14:39:57.858Z,66.39
2023-05-15T14:40:57.848Z,66.52
2023-05-15T14:41:57.834Z,67.06
2023-05-15T14:42:57.831Z,66.75
2023-05-15T14:43:57.826Z,66.38
2023-05-15T14:44:57.829Z,68.23
2023-05-15T14:45:57.869Z,68.87
2023-05-15T14:46:57.892Z,69.58
2023-05-15T14:47:57.886Z,69.45
2023-05-15T14:48:57.816Z,69.85
2023-05-15T14:49:57.801Z,69.89
2023-05-15T14:50:57.792Z,71.00
2023-05-15T14:51:57.789Z,69.75
2023-05-15T14:52:57.790Z,69.89
2023-05-15T14:53:57.789Z,71.00
2023-05-15T14:55:08.722Z,71.20
2023-05-15T14:55:57.773Z,70.56
2023-05-15T14:56:57.954Z,70.96
2023-05-15T14:57:57.767Z,71.37
2023-05-15T14:58:57.802Z,70.96
2023-05-15T14:59:57.756Z,70.73
2023-05-15T15:00:57.754Z,70.62
2023-05-15T15:01:57.802Z,69.42
2023-05-15T15:02:57.828Z,69.92
2023-05-15T15:03:57.862Z,69.98
2023-05-15T15:04:57.741Z,69.21
2023-05-15T15:05:57.736Z,69.62
2023-05-15T15:06:57.726Z,71.33
2023-05-15T15:07:57.722Z,70.73
2023-05-15T15:08:57.720Z,71.40
2023-05-15T15:09:57.713Z,69.65
2023-05-15T15:10:57.709Z,70.26
2023-05-15T15:11:57.707Z,69.82
2023-05-15T15:12:57.702Z,68.88
2023-05-15T15:13:57.704Z,68.77
2023-05-15T15:14:57.693Z,66.63
2023-05-15T15:15:57.925Z,66.36
2023-05-15T15:16:57.687Z,68.13
2023-05-15T15:17:57.754Z,69.18
2023-05-15T15:18:57.697Z,70.69
2023-05-15T15:19:57.698Z,70.09
2023-05-15T15:20:57.680Z,69.92
2023-05-15T15:21:57.676Z,69.89
2023-05-15T15:22:57.665Z,69.75
2023-05-15T15:23:57.664Z,69.75
2023-05-15T15:24:59.786Z,68.21
2023-05-15T15:25:57.652Z,67.80
2023-05-15T15:26:57.645Z,66.59
2023-05-15T15:27:57.645Z,67.90
2023-05-15T15:28:57.645Z,66.76
2023-05-15T15:29:57.635Z,66.69
2023-05-15T15:30:57.632Z,65.99
2023-05-15T15:31:57.668Z,66.08
2023-05-15T15:32:57.667Z,65.88
2023-05-15T15:33:57.681Z,65.48
2023-05-15T15:34:57.623Z,66.29
2023-05-15T15:35:57.614Z,66.08
2023-05-15T15:36:57.645Z,64.78
2023-05-15T15:37:57.656Z,65.81
2023-05-15T15:38:57.606Z,65.71
2023-05-15T15:39:57.597Z,66.32
2023-05-15T15:40:57.595Z,65.92
2023-05-15T15:41:57.591Z,66.19
2023-05-15T15:42:57.585Z,66.59
2023-05-15T15:43:57.616Z,65.85